NCAR-RAP Real-Time Weather Data

Output produced by METARs form (17 October 2018  16:44 UTC)
found at http://weather.rap.ucar.edu/surface/
 
RJTI 170700Z 07011KT 9999 FEW030 BKN060 BKN090 20/13 Q1010
RJTI 170600Z 07010KT 030V100 9999 FEW030 BKN060 BKN090 21/14 Q1009
RJTI 170500Z 05010KT 360V110 9999 FEW030 BKN035 BKN080 21/14 Q1009
RJTI 170400Z 02006KT 290V070 9999 FEW030 BKN/// 23/13 Q1009
RJTI 170300Z 36003KT 280V090 9999 FEW030 SCT130 BKN/// 22/13 Q1009
RJTI 170200Z 04006KT 350V140 9999 FEW025 BKN140 21/15 Q1010
RJTI 170100Z 03006KT 270V070 9999 FEW025 BKN130 20/14 Q1010
RJTI 170000Z 34005KT 270V060 9999 FEW020 BKN130 18/13 Q1010
RJTI 162330Z 31006KT 270V350 9999 FEW020 BKN130 18/13 Q1010
RJTI 160700Z 05005KT 9999 FEW040 SCT070 OVC/// 21/14 Q1011
RJTI 160600Z 01003KT 290V110 9999 FEW050 OVC/// 21/13 Q1011
RJTI 160500Z VRB03KT 9999 FEW050 BKN180 21/13 Q1012
RJTI 160400Z 02004KT 320V080 9999 FEW050 SCT180 OVC/// 21/13 Q1012
RJTI 160300Z 04005KT 350V120 CAVOK 21/14 Q1013
RJTI 160200Z 03005KT 330V080 CAVOK 20/13 Q1014
RJTI 160100Z 01005KT 320V060 CAVOK 20/14 Q1015
RJTI 160000Z 34004KT 270V030 9999 FEW040 BKN/// 19/13 Q1015
RJTI 152330Z 34006KT 290V050 9999 FEW050 BKN/// 18/13 Q1015
RJTI 150700Z 08007KT 9999 FEW030 BKN100 20/15 Q1016
RJTI 150600Z 09005KT 050V130 9999 FEW030 BKN120 BKN180 21/14 Q1016
RJTI 150500Z 07004KT 030V120 9999 -RA FEW025 BKN100 BKN180 21/14 Q1016